createdAt,value
2023-06-03T00:02:17.543Z,13.27
2023-06-03T00:04:48.593Z,13.27
2023-06-03T00:07:16.789Z,13.19
2023-06-03T00:09:44.726Z,13.21
2023-06-03T00:12:12.677Z,13.20
2023-06-03T00:14:40.829Z,13.22
2023-06-03T00:17:15.861Z,13.05
2023-06-03T00:19:44.260Z,13.00
2023-06-03T00:22:12.347Z,12.99
2023-06-03T00:24:40.378Z,13.01
2023-06-03T00:27:08.579Z,13.00
2023-06-03T00:29:36.854Z,13.00
2023-06-03T00:32:05.479Z,13.01
2023-06-03T00:34:35.181Z,12.97
2023-06-03T00:37:03.064Z,12.98
2023-06-03T00:39:31.218Z,12.93
2023-06-03T00:41:59.858Z,12.88
2023-06-03T00:44:27.835Z,12.92
2023-06-03T00:46:56.068Z,12.81
2023-06-03T00:49:24.134Z,12.69
2023-06-03T00:51:53.653Z,12.63
2023-06-03T00:54:22.250Z,12.60
2023-06-03T00:56:50.567Z,12.63
2023-06-03T00:59:19.708Z,12.58
2023-06-03T01:01:47.868Z,12.62
2023-06-03T01:04:18.324Z,12.64
2023-06-03T01:06:54.805Z,12.68
2023-06-03T01:09:32.051Z,12.60
2023-06-03T01:12:05.946Z,12.54
2023-06-03T01:14:42.355Z,12.50
2023-06-03T01:17:14.047Z,12.47
2023-06-03T01:19:49.498Z,12.39
2023-06-03T01:22:18.861Z,12.30
2023-06-03T01:24:51.331Z,12.22
2023-06-03T01:27:22.001Z,12.21
2023-06-03T01:29:50.128Z,12.22
2023-06-03T01:32:19.673Z,12.19
2023-06-03T01:34:48.874Z,12.19
2023-06-03T01:37:16.956Z,12.17
2023-06-03T01:39:45.683Z,12.12
2023-06-03T01:42:15.144Z,12.15
2023-06-03T01:44:43.169Z,12.20
2023-06-03T01:47:11.638Z,12.16
2023-06-03T01:49:40.410Z,12.18
2023-06-03T01:52:08.783Z,12.19
2023-06-03T01:54:36.955Z,12.05
2023-06-03T01:57:06.485Z,12.00
2023-06-03T01:59:36.593Z,12.04
2023-06-03T02:02:04.943Z,12.10
2023-06-03T02:04:33.071Z,12.09
2023-06-03T02:07:02.390Z,12.13
2023-06-03T02:09:31.154Z,12.12
2023-06-03T02:12:00.604Z,12.15
2023-06-03T02:14:29.741Z,12.15
2023-06-03T02:16:59.461Z,12.12
2023-06-03T02:19:27.914Z,11.98
2023-06-03T02:21:58.491Z,11.90
2023-06-03T02:24:29.928Z,11.97
2023-06-03T02:27:02.538Z,11.95
2023-06-03T02:29:31.639Z,11.94
2023-06-03T02:32:02.098Z,11.96
2023-06-03T02:34:30.212Z,11.84
2023-06-03T02:36:58.293Z,11.82
2023-06-03T02:39:26.267Z,11.79
2023-06-03T02:41:54.200Z,11.84
2023-06-03T02:44:22.102Z,11.84
2023-06-03T02:46:50.011Z,11.81
2023-06-03T02:49:19.291Z,11.80
2023-06-03T02:51:47.241Z,11.77
2023-06-03T02:54:15.157Z,11.74
2023-06-03T02:56:43.008Z,11.76
2023-06-03T02:59:11.616Z,11.77
2023-06-03T03:01:39.946Z,11.74
2023-06-03T03:04:07.974Z,11.66
2023-06-03T03:06:38.549Z,11.69
2023-06-03T03:09:06.762Z,11.63
2023-06-03T03:11:34.786Z,11.62
2023-06-03T03:14:03.266Z,11.57
2023-06-03T03:16:31.612Z,11.48
2023-06-03T03:18:59.723Z,11.55
2023-06-03T03:21:27.901Z,11.58
2023-06-03T03:23:57.378Z,11.56
2023-06-03T03:26:27.290Z,11.50
2023-06-03T03:28:56.106Z,11.54
2023-06-03T03:31:25.018Z,11.57
2023-06-03T03:33:53.427Z,11.63
2023-06-03T03:36:23.847Z,11.60
2023-06-03T03:39:02.213Z,11.52
2023-06-03T03:41:31.728Z,11.55
2023-06-03T03:44:00.521Z,11.67
2023-06-03T03:46:28.835Z,11.67
2023-06-03T03:48:56.914Z,11.65
2023-06-03T03:51:24.856Z,11.70
2023-06-03T03:53:53.442Z,11.76
2023-06-03T03:56:23.344Z,11.70
2023-06-03T03:58:54.359Z,11.67
2023-06-03T04:01:24.884Z,11.76
2023-06-03T04:03:56.390Z,11.77
2023-06-03T04:06:34.255Z,11.73
2023-06-03T04:09:03.991Z,11.75
2023-06-03T04:11:37.593Z,11.73
2023-06-03T04:14:11.649Z,11.84
2023-06-03T04:16:52.716Z,11.90
2023-06-03T04:19:31.840Z,11.88
2023-06-03T04:22:00.167Z,11.93
2023-06-03T04:24:28.853Z,11.98
2023-06-03T04:26:56.821Z,12.00
2023-06-03T04:29:26.273Z,12.01
2023-06-03T04:31:54.201Z,12.08
2023-06-03T04:34:22.126Z,12.16
2023-06-03T04:36:50.127Z,12.24
2023-06-03T04:39:18.861Z,12.27
2023-06-03T04:41:47.033Z,12.28
2023-06-03T04:44:15.519Z,12.26
2023-06-03T04:46:47.656Z,12.38
2023-06-03T04:49:15.902Z,12.45
2023-06-03T04:51:43.968Z,12.55
2023-06-03T04:54:12.182Z,12.54
2023-06-03T04:56:40.130Z,12.65
2023-06-03T04:59:08.104Z,12.77
2023-06-03T05:01:38.380Z,12.82
2023-06-03T05:04:09.895Z,12.94
2023-06-03T05:06:40.214Z,13.00
2023-06-03T05:09:11.143Z,13.11
2023-06-03T05:11:39.275Z,13.19
2023-06-03T05:14:08.025Z,13.21
2023-06-03T05:16:36.248Z,13.15
2023-06-03T05:19:04.274Z,13.19
2023-06-03T05:21:33.788Z,13.29
2023-06-03T05:24:01.881Z,13.32
2023-06-03T05:26:30.033Z,13.41
2023-06-03T05:28:58.142Z,13.45
2023-06-03T05:31:26.247Z,13.67
2023-06-03T05:33:54.160Z,13.67
2023-06-03T05:36:22.312Z,13.73
2023-06-03T05:38:51.698Z,13.84
2023-06-03T05:41:19.687Z,13.92
2023-06-03T05:43:47.630Z,13.97
2023-06-03T05:46:15.724Z,14.13
2023-06-03T05:48:44.511Z,14.27
2023-06-03T05:51:12.491Z,14.42
2023-06-03T05:53:45.269Z,14.49
2023-06-03T05:56:14.669Z,14.53
2023-06-03T05:58:44.979Z,14.58
2023-06-03T06:01:13.053Z,14.74
2023-06-03T06:03:42.632Z,14.77
2023-06-03T06:06:11.182Z,14.87
2023-06-03T06:08:39.139Z,14.98
2023-06-03T06:11:07.359Z,15.15
2023-06-03T06:13:37.017Z,15.16
2023-06-03T06:16:06.511Z,15.31
2023-06-03T06:18:35.331Z,15.45
2023-06-03T06:21:04.170Z,15.52
2023-06-03T06:23:32.568Z,16.51
2023-06-03T06:26:00.926Z,18.66
2023-06-03T06:28:29.792Z,20.77
2023-06-03T06:31:06.572Z,22.32
2023-06-03T06:33:37.057Z,23.61
2023-06-03T06:36:13.800Z,24.64
2023-06-03T06:38:42.334Z,25.29
2023-06-03T06:41:14.368Z,24.95
2023-06-03T06:43:42.548Z,25.27
2023-06-03T06:46:12.628Z,25.98
2023-06-03T06:48:41.740Z,26.02
2023-06-03T06:51:09.674Z,26.14
2023-06-03T06:53:38.265Z,27.24
2023-06-03T06:56:09.041Z,27.38
2023-06-03T06:58:43.065Z,27.69
2023-06-03T07:01:13.176Z,28.58
2023-06-03T07:03:41.569Z,29.27
2023-06-03T07:06:09.601Z,29.76
2023-06-03T07:08:37.766Z,30.01
2023-06-03T07:11:07.071Z,29.78
2023-06-03T07:13:39.500Z,29.11
2023-06-03T07:16:08.720Z,29.22
2023-06-03T07:18:38.258Z,29.46
2023-06-03T07:21:06.485Z,30.02
2023-06-03T07:23:36.207Z,30.36
2023-06-03T07:26:05.491Z,30.99
2023-06-03T07:28:35.888Z,30.93
2023-06-03T07:31:08.639Z,29.69
2023-06-03T07:33:51.046Z,29.10
2023-06-03T07:36:20.894Z,30.15
2023-06-03T07:39:04.786Z,30.75
2023-06-03T07:41:43.276Z,31.02
2023-06-03T07:44:13.032Z,31.84
2023-06-03T07:46:44.334Z,32.16
2023-06-03T07:49:16.558Z,32.73
2023-06-03T07:51:47.034Z,33.14
2023-06-03T07:54:15.740Z,33.30
2023-06-03T07:56:44.198Z,33.24
2023-06-03T07:59:13.167Z,32.92
2023-06-03T08:01:42.490Z,31.35
2023-06-03T08:04:28.167Z,30.28
2023-06-03T08:06:57.492Z,31.48
2023-06-03T08:09:29.130Z,31.60
2023-06-03T08:11:57.740Z,32.81
2023-06-03T08:14:29.593Z,32.89
2023-06-03T08:17:00.249Z,32.01
2023-06-03T08:19:29.686Z,30.08
2023-06-03T08:21:57.630Z,29.36
2023-06-03T08:24:25.641Z,30.91
2023-06-03T08:26:54.062Z,32.18
2023-06-03T08:29:22.104Z,32.42
2023-06-03T08:31:50.234Z,32.62
2023-06-03T08:34:18.304Z,31.43
2023-06-03T08:36:47.783Z,31.28
2023-06-03T08:39:16.437Z,31.79
2023-06-03T08:41:46.848Z,32.68
2023-06-03T08:44:22.900Z,33.07
2023-06-03T08:47:02.709Z,33.03
2023-06-03T08:49:40.581Z,31.60
2023-06-03T08:52:11.750Z,30.95
2023-06-03T08:54:41.385Z,31.20
2023-06-03T08:57:20.541Z,28.63
2023-06-03T08:59:53.602Z,30.52
2023-06-03T09:02:22.136Z,31.44
2023-06-03T09:04:51.364Z,31.36
2023-06-03T09:07:22.412Z,31.24
2023-06-03T09:09:52.255Z,31.25
2023-06-03T09:12:21.390Z,30.54
2023-06-03T09:14:49.497Z,30.28
2023-06-03T09:17:17.551Z,31.21
2023-06-03T09:19:46.320Z,31.92
2023-06-03T09:22:15.360Z,32.61
2023-06-03T09:24:44.702Z,32.35
2023-06-03T09:27:12.623Z,31.57
2023-06-03T09:29:40.884Z,30.73
2023-06-03T09:32:10.382Z,30.35
2023-06-03T09:34:39.491Z,30.74
2023-06-03T09:37:11.717Z,30.30
2023-06-03T09:39:39.838Z,30.77
2023-06-03T09:42:09.842Z,29.63
2023-06-03T09:47:12.312Z,28.42
2023-06-03T09:49:50.339Z,28.44
2023-06-03T09:52:32.622Z,28.38
2023-06-03T09:55:02.944Z,27.58
2023-06-03T09:57:32.454Z,27.31
2023-06-03T10:00:11.904Z,26.33
2023-06-03T10:02:42.003Z,26.05
2023-06-03T10:05:28.017Z,25.78
2023-06-03T10:07:56.220Z,25.60
2023-06-03T10:10:25.115Z,25.27
2023-06-03T10:12:54.405Z,25.07
2023-06-03T10:15:38.467Z,24.48
2023-06-03T10:18:07.642Z,24.25
2023-06-03T10:20:36.375Z,24.31
2023-06-03T10:23:06.262Z,24.61
2023-06-03T10:25:39.272Z,25.25
2023-06-03T10:28:09.010Z,25.24
2023-06-03T10:30:37.754Z,24.52
2023-06-03T10:33:06.040Z,24.62
2023-06-03T10:35:34.804Z,25.18
2023-06-03T10:38:04.610Z,24.42
2023-06-03T10:40:33.106Z,24.70
2023-06-03T10:43:01.183Z,24.50
2023-06-03T10:45:32.215Z,24.58
2023-06-03T10:48:04.113Z,24.54
2023-06-03T10:50:44.701Z,24.94
2023-06-03T10:53:22.571Z,24.04
2023-06-03T10:56:04.796Z,24.10
2023-06-03T10:58:35.981Z,23.95
2023-06-03T11:01:06.549Z,23.76
2023-06-03T11:03:37.668Z,23.55
2023-06-03T11:06:40.162Z,23.61
2023-06-03T11:09:10.298Z,23.46
2023-06-03T11:12:04.541Z,23.78
2023-06-03T11:14:56.863Z,23.99
2023-06-03T11:17:27.808Z,23.62
2023-06-03T11:20:00.572Z,22.90
2023-06-03T11:22:45.278Z,23.18
2023-06-03T11:25:33.389Z,23.01
2023-06-03T11:28:37.902Z,22.47
2023-06-03T11:31:07.650Z,22.70
2023-06-03T11:33:37.265Z,22.72
2023-06-03T11:36:47.973Z,22.47
2023-06-03T11:39:16.470Z,22.29
2023-06-03T11:42:18.218Z,22.59
2023-06-03T11:44:46.317Z,22.72
2023-06-03T11:47:14.262Z,22.54
2023-06-03T11:49:44.153Z,22.75
2023-06-03T11:52:13.405Z,22.54
2023-06-03T11:54:49.077Z,22.36
2023-06-03T11:57:18.140Z,22.45
2023-06-03T11:59:49.076Z,22.65
2023-06-03T12:02:17.041Z,22.19
2023-06-03T12:04:47.458Z,22.22
2023-06-03T12:07:17.370Z,22.48
2023-06-03T12:09:45.506Z,22.58
2023-06-03T12:12:14.898Z,22.46
2023-06-03T12:14:44.107Z,22.21
2023-06-03T12:17:14.674Z,21.95
2023-06-03T12:19:44.763Z,22.10
2023-06-03T12:22:14.596Z,22.32
2023-06-03T12:24:44.058Z,22.37
2023-06-03T12:27:13.692Z,22.50
2023-06-03T12:29:49.267Z,22.40
2023-06-03T12:32:17.749Z,22.70
2023-06-03T12:34:47.597Z,22.21
2023-06-03T12:37:29.387Z,22.43
2023-06-03T12:39:58.342Z,22.48
2023-06-03T12:42:44.015Z,22.51
2023-06-03T12:45:12.826Z,22.50
2023-06-03T12:47:45.960Z,22.38
2023-06-03T12:50:15.117Z,22.43
2023-06-03T12:52:44.858Z,22.11
2023-06-03T12:55:16.898Z,22.08
2023-06-03T12:57:47.282Z,22.38
2023-06-03T13:00:17.878Z,22.71
2023-06-03T13:02:47.823Z,22.63
2023-06-03T13:05:17.000Z,22.88
2023-06-03T13:07:47.291Z,22.89
2023-06-03T13:10:19.614Z,22.69
2023-06-03T13:12:48.480Z,22.84
2023-06-03T13:15:17.426Z,22.70
2023-06-03T13:17:45.970Z,22.43
2023-06-03T13:20:14.224Z,22.55
2023-06-03T13:22:47.547Z,22.61
2023-06-03T13:25:15.584Z,22.86
2023-06-03T13:27:43.964Z,22.69
2023-06-03T13:30:13.448Z,22.64
2023-06-03T13:32:42.188Z,22.67
2023-06-03T13:35:10.848Z,22.63
2023-06-03T13:37:39.349Z,22.68
2023-06-03T13:40:10.362Z,22.47
2023-06-03T13:42:38.632Z,22.53
2023-06-03T13:45:08.082Z,22.55
2023-06-03T13:47:36.936Z,22.35
2023-06-03T13:50:05.481Z,22.52
2023-06-03T13:52:33.768Z,22.43
2023-06-03T13:55:01.882Z,22.30
2023-06-03T13:57:31.548Z,22.25
2023-06-03T13:59:59.875Z,22.27
2023-06-03T14:02:28.364Z,22.29
2023-06-03T14:04:56.816Z,22.18
2023-06-03T14:07:25.063Z,22.22
2023-06-03T14:09:53.083Z,22.45
2023-06-03T14:12:21.480Z,22.30
2023-06-03T14:14:51.037Z,22.28
2023-06-03T14:17:19.128Z,22.13
2023-06-03T14:19:47.227Z,22.35
2023-06-03T14:22:15.240Z,22.33
2023-06-03T14:24:44.949Z,22.34
2023-06-03T14:27:13.066Z,22.41
2023-06-03T14:29:41.024Z,22.34
2023-06-03T14:32:12.149Z,22.53
2023-06-03T14:34:40.341Z,22.63
2023-06-03T14:37:08.762Z,22.62
2023-06-03T14:39:36.812Z,22.59
2023-06-03T14:42:04.926Z,22.66
2023-06-03T14:44:33.021Z,22.35
2023-06-03T14:47:01.081Z,22.56
2023-06-03T14:49:30.941Z,22.77
2023-06-03T14:51:59.979Z,22.78
2023-06-03T14:54:28.078Z,22.70
2023-06-03T14:56:56.043Z,22.71
2023-06-03T14:59:24.085Z,22.74
2023-06-03T15:01:52.309Z,22.77
2023-06-03T15:04:20.462Z,22.67
2023-06-03T15:06:50.159Z,22.75
2023-06-03T15:09:18.458Z,22.70
2023-06-03T15:11:46.503Z,22.37
2023-06-03T15:14:14.675Z,22.48
2023-06-03T15:16:42.858Z,22.45
2023-06-03T15:19:11.130Z,22.46
2023-06-03T15:21:40.198Z,22.37
2023-06-03T15:24:10.129Z,22.35
2023-06-03T15:26:38.266Z,22.33
2023-06-03T15:29:06.348Z,22.41
2023-06-03T15:31:34.602Z,22.50
2023-06-03T15:34:02.834Z,22.76
2023-06-03T15:36:30.894Z,22.59
2023-06-03T15:38:59.465Z,22.51
2023-06-03T15:41:29.018Z,22.54
2023-06-03T15:43:57.739Z,22.47
2023-06-03T15:46:26.004Z,22.62
2023-06-03T15:48:53.918Z,22.69
2023-06-03T15:51:22.056Z,22.71
2023-06-03T15:53:50.067Z,22.75
2023-06-03T15:56:18.184Z,22.67
2023-06-03T15:58:49.109Z,22.57
2023-06-03T16:01:17.365Z,22.42
2023-06-03T16:03:45.700Z,22.44
2023-06-03T16:06:14.117Z,22.27
2023-06-03T16:08:42.285Z,22.25
2023-06-03T16:11:10.888Z,22.21
2023-06-03T16:13:38.961Z,22.21
2023-06-03T16:16:08.740Z,22.23
2023-06-03T16:18:37.038Z,22.38
2023-06-03T16:21:05.301Z,22.21
2023-06-03T16:23:33.454Z,22.05
2023-06-03T16:26:01.650Z,22.23
2023-06-03T16:28:29.692Z,22.30
2023-06-03T16:30:57.893Z,22.25
2023-06-03T16:33:27.568Z,22.38
2023-06-03T16:35:56.820Z,22.25
2023-06-03T16:38:25.806Z,22.36
2023-06-03T16:40:53.694Z,22.33
2023-06-03T16:43:21.606Z,22.33
2023-06-03T16:45:50.844Z,22.27
2023-06-03T16:48:18.819Z,22.38
2023-06-03T16:50:48.127Z,22.15
2023-06-03T16:53:18.877Z,22.01
2023-06-03T16:55:46.900Z,22.15
2023-06-03T16:58:14.919Z,22.07
2023-06-03T17:00:43.271Z,22.03
2023-06-03T17:03:11.755Z,22.00
2023-06-03T17:05:39.787Z,21.98
2023-06-03T17:08:09.339Z,22.04
2023-06-03T17:10:37.434Z,22.15
2023-06-03T17:13:05.421Z,22.15
2023-06-03T17:15:33.475Z,22.02
2023-06-03T17:18:01.827Z,21.98
2023-06-03T17:20:32.573Z,22.03
2023-06-03T17:23:00.625Z,21.85
2023-06-03T17:25:29.953Z,21.88
2023-06-03T17:27:58.202Z,21.86
2023-06-03T17:30:26.675Z,21.84
2023-06-03T17:32:54.661Z,21.62
2023-06-03T17:35:23.763Z,21.56
2023-06-03T17:37:51.963Z,21.68
2023-06-03T17:40:19.963Z,21.66
2023-06-03T17:42:49.826Z,21.63
2023-06-03T17:45:17.851Z,21.51
2023-06-03T17:47:45.912Z,21.37
2023-06-03T17:50:14.318Z,21.43
2023-06-03T17:52:42.409Z,21.46
2023-06-03T17:55:11.532Z,21.37
2023-06-03T17:57:45.796Z,21.34
2023-06-03T18:00:19.202Z,21.19
2023-06-03T18:02:47.616Z,21.12
2023-06-03T18:05:15.905Z,21.08
2023-06-03T18:07:44.689Z,21.00
2023-06-03T18:10:18.201Z,20.83
2023-06-03T18:12:46.142Z,20.86
2023-06-03T18:15:15.742Z,20.92
2023-06-03T18:17:44.200Z,20.92
2023-06-03T18:20:12.808Z,20.94
2023-06-03T18:22:40.880Z,20.93
2023-06-03T18:25:10.043Z,20.73
2023-06-03T18:27:38.091Z,20.63
2023-06-03T18:30:08.748Z,20.70
2023-06-03T18:32:39.016Z,20.65
2023-06-03T18:35:08.184Z,20.53
2023-06-03T18:37:36.276Z,20.54
2023-06-03T18:40:04.498Z,20.47
2023-06-03T18:42:34.054Z,20.39
2023-06-03T18:45:02.144Z,20.32
2023-06-03T18:47:30.139Z,20.37
2023-06-03T18:49:59.521Z,20.35
2023-06-03T18:52:27.909Z,20.24
2023-06-03T18:54:56.177Z,20.24
2023-06-03T18:57:24.237Z,20.22
2023-06-03T18:59:53.780Z,20.19
2023-06-03T19:02:24.860Z,20.07
2023-06-03T19:04:52.941Z,20.02
2023-06-03T19:07:22.625Z,19.96
2023-06-03T19:09:50.553Z,19.87
2023-06-03T19:12:18.973Z,19.81
2023-06-03T19:14:47.041Z,19.80
2023-06-03T19:17:15.241Z,19.64
2023-06-03T19:19:43.908Z,19.69
2023-06-03T19:22:12.175Z,19.60
2023-06-03T19:24:44.634Z,19.63
2023-06-03T19:27:13.127Z,19.56
2023-06-03T19:29:41.521Z,19.58
2023-06-03T19:32:10.442Z,19.51
2023-06-03T19:34:38.423Z,19.45
2023-06-03T19:37:07.542Z,19.43
2023-06-03T19:39:35.655Z,19.37
2023-06-03T19:42:05.731Z,19.27
2023-06-03T19:44:34.111Z,19.29
2023-06-03T19:47:02.634Z,19.22
2023-06-03T19:49:34.189Z,19.19
2023-06-03T19:52:03.009Z,19.13
2023-06-03T19:54:31.106Z,19.16
2023-06-03T19:57:02.477Z,19.02
2023-06-03T19:59:32.392Z,19.01
2023-06-03T20:02:00.252Z,18.90
2023-06-03T20:04:28.110Z,18.83
2023-06-03T20:06:56.065Z,18.85
2023-06-03T20:09:24.222Z,18.85
2023-06-03T20:11:52.563Z,18.82
2023-06-03T20:14:20.854Z,18.70
2023-06-03T20:16:50.813Z,18.72
2023-06-03T20:19:19.064Z,18.67
2023-06-03T20:21:47.063Z,18.56
2023-06-03T20:24:15.037Z,18.57
2023-06-03T20:26:45.000Z,18.54
2023-06-03T20:29:14.808Z,18.43
2023-06-03T20:31:42.854Z,18.43
2023-06-03T20:34:12.487Z,18.35
2023-06-03T20:36:41.401Z,18.37
2023-06-03T20:39:09.610Z,18.30
2023-06-03T20:41:37.887Z,18.17
2023-06-03T20:44:05.940Z,18.09
2023-06-03T20:46:33.920Z,18.03
2023-06-03T20:49:02.032Z,17.98
2023-06-03T20:51:31.495Z,17.93
2023-06-03T20:54:00.039Z,17.91
2023-06-03T20:56:27.952Z,17.88
2023-06-03T20:58:56.029Z,17.78
2023-06-03T21:01:23.995Z,17.75
2023-06-03T21:03:52.145Z,17.75
2023-06-03T21:06:20.696Z,17.67
2023-06-03T21:08:49.942Z,17.71
2023-06-03T21:11:17.896Z,17.68
2023-06-03T21:13:46.493Z,17.61
2023-06-03T21:16:15.024Z,17.51
2023-06-03T21:18:43.311Z,17.48
2023-06-03T21:21:11.254Z,17.48
2023-06-03T21:23:39.255Z,17.43
2023-06-03T21:26:08.663Z,17.29
2023-06-03T21:28:36.601Z,17.19
2023-06-03T21:31:05.085Z,17.19
2023-06-03T21:33:33.409Z,17.10
2023-06-03T21:36:01.679Z,17.06
2023-06-03T21:38:29.748Z,17.02
2023-06-03T21:40:57.714Z,16.96
2023-06-03T21:43:27.266Z,16.92
2023-06-03T21:45:55.171Z,16.90
2023-06-03T21:48:24.214Z,16.83
2023-06-03T21:50:52.369Z,16.72
2023-06-03T21:53:20.458Z,16.67
2023-06-03T21:55:49.164Z,16.63
2023-06-03T21:58:17.277Z,16.56
2023-06-03T22:00:47.260Z,16.58
2023-06-03T22:03:17.925Z,16.55
2023-06-03T22:05:46.330Z,16.57
2023-06-03T22:08:14.361Z,16.54
2023-06-03T22:10:42.308Z,16.54
2023-06-03T22:13:10.227Z,16.53
2023-06-03T22:15:39.017Z,16.52
2023-06-03T22:18:08.652Z,16.46
2023-06-03T22:20:36.636Z,16.43
2023-06-03T22:23:07.575Z,16.41
2023-06-03T22:25:36.794Z,16.39
2023-06-03T22:28:04.986Z,16.37
2023-06-03T22:30:33.122Z,16.30
2023-06-03T22:33:04.152Z,16.32
2023-06-03T22:35:33.576Z,16.23
2023-06-03T22:38:01.537Z,16.23
2023-06-03T22:40:29.665Z,16.18
2023-06-03T22:42:57.941Z,16.12
2023-06-03T22:45:25.969Z,16.06
2023-06-03T22:47:54.480Z,16.05
2023-06-03T22:50:22.522Z,16.07
2023-06-03T22:52:51.926Z,16.02
2023-06-03T22:55:21.795Z,15.99
2023-06-03T22:57:50.210Z,15.95
2023-06-03T23:00:18.909Z,15.97
2023-06-03T23:02:47.111Z,15.98
2023-06-03T23:05:15.206Z,15.92
2023-06-03T23:07:43.117Z,15.94
2023-06-03T23:10:16.410Z,15.86
2023-06-03T23:12:44.361Z,15.91
2023-06-03T23:15:13.152Z,15.85
2023-06-03T23:17:41.672Z,15.82
2023-06-03T23:20:19.800Z,15.82
2023-06-03T23:22:48.260Z,15.76
2023-06-03T23:25:20.053Z,15.72
2023-06-03T23:27:50.503Z,15.68
2023-06-03T23:30:18.700Z,15.57
2023-06-03T23:32:46.792Z,15.52
2023-06-03T23:35:16.315Z,15.54
2023-06-03T23:37:46.087Z,15.47
2023-06-03T23:40:15.348Z,15.38
2023-06-03T23:42:44.857Z,15.39
2023-06-03T23:45:13.171Z,15.38
2023-06-03T23:47:41.359Z,15.35
2023-06-03T23:50:10.142Z,15.33
2023-06-03T23:52:38.502Z,15.32
2023-06-03T23:55:07.366Z,15.26
2023-06-03T23:57:35.744Z,15.23
